createdAt,value
2024-04-12T00:03:49.447Z,48.90
2024-04-12T00:06:16.511Z,47.72
2024-04-12T00:08:47.946Z,48.47
2024-04-12T00:11:22.280Z,47.15
2024-04-12T00:13:53.568Z,46.55
2024-04-12T00:16:26.950Z,47.45
2024-04-12T00:19:13.770Z,46.47
2024-04-12T00:21:42.937Z,45.95
2024-04-12T00:24:13.489Z,46.53
2024-04-12T00:26:50.131Z,46.40
2024-04-12T00:29:38.388Z,45.78
2024-04-12T00:32:16.890Z,44.72
2024-04-12T00:35:04.397Z,43.45
2024-04-12T00:37:34.474Z,44.03
2024-04-12T00:42:32.799Z,43.92
2024-04-12T00:45:00.200Z,43.47
2024-04-12T00:47:33.535Z,45.00
2024-04-12T00:50:03.600Z,44.35
2024-04-12T00:52:34.677Z,44.50
2024-04-12T00:55:10.630Z,42.75
2024-04-12T00:57:39.794Z,43.55
2024-04-12T01:00:11.196Z,44.33
2024-04-12T01:02:43.778Z,42.53
2024-04-12T01:05:19.354Z,44.10
2024-04-12T01:07:57.890Z,42.40
2024-04-12T01:10:26.049Z,43.97
2024-04-12T01:12:57.343Z,42.38
2024-04-12T01:15:38.917Z,41.92
2024-04-12T01:18:13.090Z,40.88
2024-04-12T01:20:41.201Z,39.90
2024-04-12T01:23:08.109Z,40.28
2024-04-12T01:25:36.068Z,42.58
2024-04-12T01:28:04.810Z,41.60
2024-04-12T01:30:32.156Z,42.15
2024-04-12T01:32:59.461Z,44.15
2024-04-12T01:35:26.233Z,42.38
2024-04-12T01:37:53.262Z,44.20
2024-04-12T01:40:24.055Z,45.08
2024-04-12T01:42:50.995Z,46.28
2024-04-12T01:45:17.978Z,45.92
2024-04-12T01:47:49.375Z,43.38
2024-04-12T01:50:35.614Z,46.42
2024-04-12T01:53:10.720Z,47.08
2024-04-12T01:55:41.235Z,45.95
2024-04-12T01:58:07.848Z,47.55
2024-04-12T02:00:34.898Z,46.30
2024-04-12T02:03:03.820Z,47.65
2024-04-12T02:05:33.646Z,48.88
2024-04-12T02:08:04.734Z,47.47
2024-04-12T02:10:31.331Z,49.85
2024-04-12T02:12:57.895Z,47.80
2024-04-12T02:15:27.007Z,50.75
2024-04-12T02:18:00.268Z,50.47
2024-04-12T02:20:35.194Z,50.28
2024-04-12T02:23:08.804Z,53.45
2024-04-12T02:25:36.877Z,53.65
2024-04-12T02:28:09.319Z,52.42
2024-04-12T02:30:45.960Z,56.50
2024-04-12T02:33:15.704Z,57.45
2024-04-12T02:35:42.874Z,56.13
2024-04-12T02:38:17.354Z,58.72
2024-04-12T02:40:44.919Z,57.53
2024-04-12T02:43:16.522Z,56.15
2024-04-12T02:45:53.940Z,55.72
2024-04-12T02:48:24.008Z,56.33
2024-04-12T02:53:26.245Z,52.40
2024-04-12T02:56:13.061Z,54.28
2024-04-12T02:58:45.561Z,55.30
2024-04-12T03:01:15.281Z,51.88
2024-04-12T03:03:47.137Z,54.03
2024-04-12T03:06:18.586Z,53.38
2024-04-12T03:08:50.358Z,53.63
2024-04-12T03:11:36.043Z,52.28
2024-04-12T03:14:05.554Z,52.40
2024-04-12T03:16:32.690Z,52.20
2024-04-12T03:19:00.061Z,50.70
2024-04-12T03:21:27.961Z,51.00
2024-04-12T03:23:56.685Z,51.53
2024-04-12T03:26:23.672Z,49.97
2024-04-12T03:28:55.242Z,46.95
2024-04-12T03:31:26.774Z,46.25
2024-04-12T03:33:57.270Z,47.25
2024-04-12T03:36:28.582Z,45.28
2024-04-12T03:39:22.124Z,45.95
2024-04-12T03:42:09.251Z,45.80
2024-04-12T03:44:37.974Z,43.42
2024-04-12T03:47:10.444Z,42.83
2024-04-12T03:49:41.060Z,44.45
2024-04-12T03:52:17.115Z,44.92
2024-04-12T03:54:46.936Z,47.00
2024-04-12T03:59:45.460Z,47.40
2024-04-12T04:02:15.508Z,48.67
2024-04-12T04:04:47.648Z,50.60
2024-04-12T04:07:17.006Z,48.40
2024-04-12T04:09:44.938Z,48.57
2024-04-12T04:12:16.176Z,48.72
2024-04-12T04:14:49.826Z,49.13
2024-04-12T04:17:19.597Z,51.70
2024-04-12T04:19:46.680Z,53.83
2024-04-12T04:22:28.611Z,54.33
2024-04-12T04:24:56.257Z,56.22
2024-04-12T04:27:24.178Z,56.35
2024-04-12T04:29:56.927Z,57.00
2024-04-12T04:32:24.999Z,58.95
2024-04-12T04:34:55.676Z,58.85
2024-04-12T04:37:27.869Z,57.70
2024-04-12T04:40:00.413Z,58.28
2024-04-12T04:42:26.978Z,62.40
2024-04-12T04:44:53.608Z,59.63
2024-04-12T04:47:24.441Z,61.63
2024-04-12T04:49:51.727Z,61.03
2024-04-12T04:52:18.324Z,63.42
2024-04-12T04:54:45.971Z,59.85
2024-04-12T04:57:14.011Z,63.00
2024-04-12T04:59:46.337Z,62.80
2024-04-12T05:02:13.393Z,63.45
2024-04-12T05:04:40.072Z,65.43
2024-04-12T05:07:07.008Z,63.90
2024-04-12T05:09:33.798Z,66.15
2024-04-12T05:12:01.830Z,68.80
2024-04-12T05:14:38.514Z,68.78
2024-04-12T05:17:10.861Z,67.13
2024-04-12T05:19:42.200Z,68.57
2024-04-12T05:22:11.860Z,70.07
2024-04-12T05:24:41.198Z,70.65
2024-04-12T05:27:09.226Z,69.88
2024-04-12T05:29:35.920Z,68.45
2024-04-12T05:32:02.765Z,72.38
2024-04-12T05:34:30.119Z,70.68
2024-04-12T05:37:01.584Z,70.38
2024-04-12T05:39:28.649Z,71.38
2024-04-12T05:41:55.805Z,70.38
2024-04-12T05:44:23.550Z,70.70
2024-04-12T05:46:50.150Z,68.70
2024-04-12T05:49:17.233Z,72.70
2024-04-12T05:51:43.862Z,69.90
2024-04-12T05:54:16.782Z,68.60
2024-04-12T05:56:48.171Z,69.15
2024-04-12T05:59:15.312Z,69.47
2024-04-12T06:01:52.862Z,69.07
2024-04-12T06:04:20.864Z,69.80
2024-04-12T06:06:48.755Z,67.05
2024-04-12T06:09:22.962Z,67.38
2024-04-12T06:11:55.327Z,65.13
2024-04-12T06:14:23.404Z,67.28
2024-04-12T06:16:55.636Z,62.88
2024-04-12T06:19:22.787Z,62.35
2024-04-12T06:21:50.070Z,63.83
2024-04-12T06:24:17.920Z,64.53
2024-04-12T06:26:50.731Z,65.72
2024-04-12T06:31:55.774Z,63.00
2024-04-12T06:34:23.774Z,68.38
2024-04-12T06:36:57.941Z,67.07
2024-04-12T06:39:28.115Z,67.30
2024-04-12T06:44:26.144Z,58.97
2024-04-12T06:46:53.375Z,61.45
2024-04-12T06:49:28.184Z,65.32
2024-04-12T06:52:11.311Z,61.65
2024-04-12T06:54:43.056Z,59.72
2024-04-12T06:57:11.310Z,58.38
2024-04-12T06:59:38.032Z,57.75
2024-04-12T07:02:06.216Z,58.00
2024-04-12T07:04:33.321Z,57.92
2024-04-12T07:07:03.998Z,55.00
2024-04-12T07:09:35.379Z,55.75
2024-04-12T07:12:08.578Z,53.55
2024-04-12T07:14:36.958Z,54.67
2024-04-12T07:17:21.131Z,52.50
2024-04-12T07:19:50.800Z,51.05
2024-04-12T07:22:22.051Z,52.08
2024-04-12T07:24:51.366Z,50.83
2024-04-12T07:27:19.412Z,48.47
2024-04-12T07:29:48.000Z,47.75
2024-04-12T07:32:18.622Z,45.17
2024-04-12T07:34:50.884Z,44.33
2024-04-12T07:37:33.150Z,45.30
2024-04-12T07:40:19.902Z,42.78
2024-04-12T07:42:47.631Z,41.33
2024-04-12T07:45:19.097Z,39.33
2024-04-12T07:47:55.181Z,38.05
2024-04-12T07:50:30.398Z,37.63
2024-04-12T07:53:20.972Z,36.25
2024-04-12T07:55:56.591Z,34.35
2024-04-12T07:58:27.963Z,35.65
2024-04-12T08:01:10.621Z,37.42
2024-04-12T08:03:39.184Z,34.65
2024-04-12T08:06:06.867Z,34.17
2024-04-12T08:08:48.054Z,33.97
2024-04-12T08:11:35.422Z,33.25
2024-04-12T08:14:22.387Z,33.20
2024-04-12T08:16:53.752Z,33.92
2024-04-12T08:19:23.700Z,33.30
2024-04-12T08:21:51.512Z,32.88
2024-04-12T08:24:24.042Z,33.08
2024-04-12T08:26:53.127Z,32.28
2024-04-12T08:29:25.184Z,30.40
2024-04-12T08:32:00.961Z,30.13
2024-04-12T08:34:29.356Z,31.70
2024-04-12T08:36:57.264Z,29.52
2024-04-12T08:39:26.979Z,29.23
2024-04-12T08:42:01.768Z,27.60
2024-04-12T08:44:31.387Z,28.02
2024-04-12T08:47:26.191Z,26.58
2024-04-12T08:50:04.361Z,27.13
2024-04-12T08:52:49.211Z,32.17
2024-04-12T08:55:21.786Z,27.48
2024-04-12T08:57:53.806Z,25.95
2024-04-12T09:00:23.986Z,25.58
2024-04-12T09:03:12.133Z,25.33
2024-04-12T09:05:44.112Z,24.63
2024-04-12T09:08:19.274Z,23.05
2024-04-12T09:10:47.270Z,23.75
2024-04-12T09:13:16.900Z,24.10
2024-04-12T09:15:50.002Z,24.48
2024-04-12T09:18:21.686Z,24.40
2024-04-12T09:21:03.880Z,23.45
2024-04-12T09:23:36.032Z,24.45
2024-04-12T09:29:12.840Z,25.98
2024-04-12T09:32:05.667Z,22.20
2024-04-12T09:34:38.072Z,22.08
2024-04-12T09:37:27.464Z,21.25
2024-04-12T09:40:21.468Z,21.33
2024-04-12T09:42:56.741Z,21.67
2024-04-12T09:45:29.449Z,22.02
2024-04-12T09:48:16.634Z,20.85
2024-04-12T09:51:03.019Z,21.30
2024-04-12T09:53:56.415Z,21.02
2024-04-12T09:57:18.168Z,21.05
2024-04-12T10:00:18.621Z,21.48
2024-04-12T10:03:07.389Z,21.75
2024-04-12T10:05:54.915Z,21.88
2024-04-12T10:08:41.458Z,21.63
2024-04-12T10:11:27.849Z,21.67
2024-04-12T10:14:14.982Z,21.30
2024-04-12T10:17:00.588Z,21.58
2024-04-12T10:19:46.757Z,22.42
2024-04-12T10:22:33.688Z,21.45
2024-04-12T10:25:22.714Z,22.38
2024-04-12T10:28:11.611Z,22.30
2024-04-12T10:31:04.815Z,22.38
2024-04-12T10:34:01.541Z,23.10
2024-04-12T10:36:48.192Z,22.23
2024-04-12T10:39:15.605Z,22.30
2024-04-12T10:41:42.770Z,23.38
2024-04-12T10:44:11.800Z,22.55
2024-04-12T10:46:38.471Z,23.35
2024-04-12T10:49:05.107Z,23.77
2024-04-12T10:51:33.052Z,22.92
2024-04-12T10:54:00.262Z,22.83
2024-04-12T10:56:28.138Z,22.83
2024-04-12T10:58:58.315Z,23.35
2024-04-12T11:01:28.004Z,22.58
2024-04-12T11:03:57.947Z,22.27
2024-04-12T11:06:32.981Z,22.10
2024-04-12T11:09:00.803Z,22.10
2024-04-12T11:11:39.493Z,21.98
2024-04-12T11:14:16.865Z,21.77
2024-04-12T11:17:07.026Z,21.70
2024-04-12T11:19:56.167Z,23.52
2024-04-12T11:22:45.765Z,22.43
2024-04-12T11:25:32.426Z,23.30
2024-04-12T11:28:18.953Z,22.25
2024-04-12T11:31:04.224Z,21.63
2024-04-12T11:33:36.312Z,22.08
2024-04-12T11:36:06.927Z,21.92
2024-04-12T11:41:05.838Z,21.38
2024-04-12T11:43:35.433Z,22.42
2024-04-12T11:46:04.873Z,21.40
2024-04-12T11:48:32.762Z,23.00
2024-04-12T11:51:00.840Z,22.13
2024-04-12T11:53:27.582Z,22.77
2024-04-12T11:55:56.568Z,23.67
2024-04-12T11:58:23.840Z,21.50
2024-04-12T12:00:50.484Z,23.15
2024-04-12T12:03:18.082Z,20.92
2024-04-12T12:05:47.302Z,21.33
2024-04-12T12:08:14.504Z,21.50
2024-04-12T12:10:42.595Z,21.70
2024-04-12T12:13:09.283Z,21.10
2024-04-12T12:15:36.169Z,21.77
2024-04-12T12:18:02.838Z,22.15
2024-04-12T12:20:31.774Z,23.73
2024-04-12T12:22:59.718Z,21.38
2024-04-12T12:25:27.710Z,22.02
2024-04-12T12:27:56.187Z,21.98
2024-04-12T12:30:24.437Z,23.25
2024-04-12T12:32:51.365Z,21.20
2024-04-12T12:35:24.251Z,21.17
2024-04-12T12:37:52.451Z,22.33
2024-04-12T12:40:19.866Z,23.75
2024-04-12T12:42:47.876Z,20.75
2024-04-12T12:45:18.147Z,20.30
2024-04-12T12:47:45.454Z,21.02
2024-04-12T12:50:21.417Z,20.52
2024-04-12T12:52:51.699Z,21.15
2024-04-12T12:55:20.541Z,19.83
2024-04-12T12:57:47.286Z,19.20
2024-04-12T13:00:20.243Z,21.25
2024-04-12T13:02:51.671Z,20.60
2024-04-12T13:05:20.026Z,20.58
2024-04-12T13:07:50.384Z,19.60
2024-04-12T13:10:21.101Z,20.77
2024-04-12T13:12:52.507Z,20.45
2024-04-12T13:15:20.933Z,21.05
2024-04-12T13:17:48.106Z,20.30
2024-04-12T13:20:20.598Z,20.80
2024-04-12T13:22:48.818Z,20.15
2024-04-12T13:25:18.394Z,21.00
2024-04-12T13:27:56.741Z,22.00
2024-04-12T13:30:25.855Z,19.27
2024-04-12T13:32:59.701Z,21.05
2024-04-12T13:35:26.629Z,19.85
2024-04-12T13:37:56.378Z,20.92
2024-04-12T13:40:22.981Z,21.08
2024-04-12T13:42:50.811Z,18.70
2024-04-12T13:45:36.427Z,22.27
2024-04-12T13:48:21.860Z,21.05
2024-04-12T13:50:57.717Z,22.35
2024-04-12T13:53:33.993Z,20.58
2024-04-12T13:56:21.829Z,19.60
2024-04-12T13:58:50.509Z,21.45
2024-04-12T14:01:26.407Z,20.88
2024-04-12T14:04:04.760Z,20.90
2024-04-12T14:06:37.557Z,22.42
2024-04-12T14:09:14.740Z,20.77
2024-04-12T14:11:42.481Z,21.98
2024-04-12T14:14:10.056Z,21.58
2024-04-12T14:16:43.618Z,20.75
2024-04-12T14:19:21.537Z,21.13
2024-04-12T14:21:53.291Z,20.70
2024-04-12T14:24:40.473Z,21.35
2024-04-12T14:27:07.835Z,22.23
2024-04-12T14:29:35.950Z,21.85
2024-04-12T14:32:07.073Z,20.90
2024-04-12T14:34:34.462Z,21.23
2024-04-12T14:37:01.519Z,21.10
2024-04-12T14:39:33.224Z,20.45
2024-04-12T14:42:05.927Z,21.20
2024-04-12T14:44:39.277Z,21.45
2024-04-12T14:47:07.110Z,20.60
2024-04-12T14:49:34.410Z,19.52
2024-04-12T14:52:02.382Z,18.08
2024-04-12T14:54:31.565Z,19.20
2024-04-12T14:56:58.287Z,17.93
2024-04-12T14:59:25.536Z,17.40
2024-04-12T15:01:52.359Z,16.02
2024-04-12T15:04:37.895Z,16.38
2024-04-12T15:07:23.322Z,20.30
2024-04-12T15:10:08.450Z,21.60
2024-04-12T15:12:53.562Z,20.65
2024-04-12T15:15:38.871Z,21.55
2024-04-12T15:18:24.250Z,19.70
2024-04-12T15:21:09.590Z,19.38
2024-04-12T15:23:54.681Z,18.48
2024-04-12T15:26:39.897Z,20.30
2024-04-12T15:29:25.398Z,19.85
2024-04-12T15:32:10.407Z,19.70
2024-04-12T15:34:55.669Z,20.25
2024-04-12T15:37:40.997Z,18.85
2024-04-12T15:40:26.454Z,19.20
2024-04-12T15:43:11.791Z,19.38
2024-04-12T15:45:57.199Z,18.20
2024-04-12T15:48:27.426Z,20.92
2024-04-12T15:50:56.096Z,19.83
2024-04-12T15:53:32.075Z,20.75
2024-04-12T15:56:01.950Z,20.13
2024-04-12T15:58:48.596Z,20.27
2024-04-12T16:01:42.148Z,19.90
2024-04-12T16:04:27.467Z,19.90
2024-04-12T16:07:12.822Z,19.70
2024-04-12T16:10:00.227Z,20.20
2024-04-12T16:12:27.509Z,18.05
2024-04-12T16:14:55.115Z,18.92
2024-04-12T16:17:22.028Z,19.08
2024-04-12T16:19:49.017Z,18.27
2024-04-12T16:22:19.051Z,19.88
2024-04-12T16:27:12.873Z,19.15
2024-04-12T16:29:41.635Z,19.92
2024-04-12T16:32:09.458Z,19.92
2024-04-12T16:34:36.121Z,19.80
2024-04-12T16:37:03.092Z,20.42
2024-04-12T16:39:29.704Z,19.85
2024-04-12T16:41:57.733Z,19.55
2024-04-12T16:44:24.687Z,19.85
2024-04-12T16:46:51.642Z,19.35
2024-04-12T16:49:18.533Z,20.75
2024-04-12T16:51:45.158Z,22.08
2024-04-12T16:54:11.857Z,21.25
2024-04-12T16:56:38.487Z,20.77
2024-04-12T16:59:06.553Z,19.30
2024-04-12T17:01:33.619Z,19.52
2024-04-12T17:04:01.489Z,21.30
2024-04-12T17:06:29.156Z,20.77
2024-04-12T17:08:56.013Z,22.10
2024-04-12T17:11:22.774Z,20.63
2024-04-12T17:13:49.875Z,21.10
2024-04-12T17:16:18.354Z,21.55
2024-04-12T17:18:45.135Z,21.23
2024-04-12T17:21:11.877Z,22.02
2024-04-12T17:23:38.538Z,20.40
2024-04-12T17:26:08.316Z,21.00
2024-04-12T17:28:35.027Z,21.35
2024-04-12T17:31:02.138Z,21.35
2024-04-12T17:33:31.110Z,19.65
2024-04-12T17:35:58.664Z,20.17
2024-04-12T17:38:27.884Z,20.88
2024-04-12T17:40:54.412Z,20.23
2024-04-12T17:43:22.446Z,20.83
2024-04-12T17:45:49.550Z,20.77
2024-04-12T17:48:16.441Z,22.50
2024-04-12T17:50:52.745Z,20.92
2024-04-12T17:53:19.383Z,19.75
2024-04-12T17:55:46.166Z,22.45
2024-04-12T17:58:21.570Z,21.83
2024-04-12T18:00:48.182Z,20.38
2024-04-12T18:03:15.270Z,20.20
2024-04-12T18:05:42.129Z,20.17
2024-04-12T18:08:08.761Z,19.95
2024-04-12T18:10:35.300Z,20.17
2024-04-12T18:13:01.891Z,19.92
2024-04-12T18:15:29.045Z,19.92
2024-04-12T18:17:55.861Z,18.42
2024-04-12T18:20:25.783Z,18.80
2024-04-12T18:25:20.829Z,18.65
2024-04-12T18:27:47.633Z,20.15
2024-04-12T18:30:14.444Z,22.58
2024-04-12T18:35:13.118Z,22.48
2024-04-12T18:38:00.275Z,30.00
2024-04-12T18:40:45.629Z,43.70
2024-04-12T18:43:30.767Z,31.02
2024-04-12T18:45:57.358Z,28.80
2024-04-12T18:48:27.963Z,26.92
2024-04-12T18:50:54.666Z,26.40
2024-04-12T18:53:23.055Z,26.05
2024-04-12T18:55:49.878Z,27.90
2024-04-12T18:58:16.490Z,28.35
2024-04-12T19:00:50.445Z,26.50
2024-04-12T19:03:17.233Z,29.77
2024-04-12T19:05:45.594Z,33.33
2024-04-12T19:08:12.683Z,33.63
2024-04-12T19:10:41.218Z,31.27
2024-04-12T19:13:08.779Z,29.67
2024-04-12T19:15:42.001Z,26.88
2024-04-12T19:18:10.816Z,26.27
2024-04-12T19:20:44.190Z,27.17
2024-04-12T19:23:11.419Z,31.55
2024-04-12T19:25:38.296Z,29.13
2024-04-12T19:28:06.056Z,33.28
2024-04-12T19:30:37.218Z,35.67
2024-04-12T19:33:04.252Z,34.42
2024-04-12T19:35:30.932Z,37.53
2024-04-12T19:37:57.629Z,39.53
2024-04-12T19:40:24.275Z,35.40
2024-04-12T19:42:50.868Z,32.28
2024-04-12T19:45:17.436Z,31.83
2024-04-12T19:47:44.131Z,34.17
2024-04-12T19:50:12.035Z,36.55
2024-04-12T19:52:42.401Z,35.95
2024-04-12T19:55:14.142Z,31.38
2024-04-12T19:57:40.764Z,32.45
2024-04-12T20:00:10.066Z,32.05
2024-04-12T20:02:36.798Z,33.38
2024-04-12T20:05:04.894Z,31.30
2024-04-12T20:07:31.663Z,28.50
2024-04-12T20:09:58.220Z,28.98
2024-04-12T20:12:24.813Z,31.77
2024-04-12T20:14:54.912Z,29.17
2024-04-12T20:17:22.931Z,29.95
2024-04-12T20:19:57.280Z,29.65
2024-04-12T20:22:23.994Z,27.77
2024-04-12T20:24:50.985Z,28.13
2024-04-12T20:27:18.054Z,26.95
2024-04-12T20:29:56.180Z,29.23
2024-04-12T20:32:24.902Z,27.65
2024-04-12T20:35:15.543Z,27.35
2024-04-12T20:37:43.727Z,27.35
2024-04-12T20:40:10.703Z,30.23
2024-04-12T20:42:37.365Z,29.20
2024-04-12T20:45:04.667Z,27.77
2024-04-12T20:47:31.343Z,29.83
2024-04-12T20:49:58.012Z,29.15
2024-04-12T20:52:24.985Z,27.65
2024-04-12T20:54:51.676Z,28.63
2024-04-12T20:57:19.562Z,28.85
2024-04-12T20:59:52.392Z,30.83
2024-04-12T21:02:19.104Z,31.17
2024-04-12T21:04:45.907Z,28.90
2024-04-12T21:07:14.333Z,28.85
2024-04-12T21:09:41.102Z,30.77
2024-04-12T21:12:09.871Z,31.13
2024-04-12T21:14:37.858Z,29.88
2024-04-12T21:17:04.748Z,30.05
2024-04-12T21:19:31.428Z,29.45
2024-04-12T21:21:58.058Z,33.15
2024-04-12T21:24:24.778Z,33.67
2024-04-12T21:26:51.489Z,30.52
2024-04-12T21:29:18.636Z,32.90
2024-04-12T21:31:45.611Z,34.33
2024-04-12T21:34:13.473Z,33.25
2024-04-12T21:36:40.191Z,33.08
2024-04-12T21:39:07.077Z,32.22
2024-04-12T21:41:34.643Z,32.53
2024-04-12T21:44:01.285Z,34.70
2024-04-12T21:46:27.912Z,34.88
2024-04-12T21:48:55.067Z,33.08
2024-04-12T21:51:24.853Z,31.70
2024-04-12T21:53:51.882Z,29.48
2024-04-12T21:56:22.314Z,32.78
2024-04-12T21:58:52.991Z,34.25
2024-04-12T22:01:20.604Z,33.03
2024-04-12T22:03:47.846Z,33.13
2024-04-12T22:06:15.714Z,33.33
2024-04-12T22:08:42.528Z,33.33
2024-04-12T22:11:09.354Z,33.47
2024-04-12T22:13:37.221Z,33.42
2024-04-12T22:16:10.418Z,34.70
2024-04-12T22:18:39.256Z,34.00
2024-04-12T22:21:06.999Z,33.50
2024-04-12T22:23:36.799Z,36.00
2024-04-12T22:26:11.941Z,36.50
2024-04-12T22:28:41.023Z,33.80
2024-04-12T22:31:08.162Z,34.75
2024-04-12T22:33:35.272Z,34.80
2024-04-12T22:36:09.985Z,35.67
2024-04-12T22:38:36.861Z,35.92
2024-04-12T22:41:03.847Z,33.83
2024-04-12T22:43:30.436Z,35.53
2024-04-12T22:45:57.024Z,35.55
2024-04-12T22:48:24.302Z,35.03
2024-04-12T22:50:52.248Z,34.47
2024-04-12T22:53:18.858Z,37.60
2024-04-12T22:55:45.478Z,37.03
2024-04-12T22:58:13.663Z,37.85
2024-04-12T23:00:40.823Z,38.13
2024-04-12T23:03:07.809Z,38.15
2024-04-12T23:05:34.681Z,38.35
2024-04-12T23:08:01.436Z,39.03
2024-04-12T23:10:31.579Z,38.15
2024-04-12T23:15:25.600Z,40.50
2024-04-12T23:17:52.528Z,37.60
2024-04-12T23:20:19.759Z,39.55
2024-04-12T23:22:46.637Z,41.63
2024-04-12T23:25:13.249Z,40.45
2024-04-12T23:27:39.932Z,40.42
2024-04-12T23:30:07.290Z,40.20
2024-04-12T23:32:33.982Z,41.03
2024-04-12T23:35:02.616Z,39.03
2024-04-12T23:37:29.330Z,40.38
2024-04-12T23:39:55.949Z,36.90
2024-04-12T23:42:22.539Z,37.78
2024-04-12T23:44:49.222Z,38.45
2024-04-12T23:47:16.754Z,37.80
2024-04-12T23:49:43.377Z,35.50
2024-04-12T23:52:10.123Z,35.90
2024-04-12T23:54:38.683Z,37.03
2024-04-12T23:57:05.724Z,33.65
2024-04-12T23:59:32.405Z,34.65
